Time;durP1;ratioP1;P1;durP2;ratioP2;P2;SDS_P1;SDS_P2;PMS_P1;PMS_P2;Temp;Humidity;BMP_temperature;BMP_pressure;BME280_temperature;BME280_humidity;BME280_pressure;Samples;Min_cycle;Max_cycle;Signal;HPM_P1;HPM_P2
2023/07/26 00:00:57;;;;;;;5.88;3.65;;;;;;;30.31;43.06;97681.63;5047285;28;20211;-62
2023/07/26 00:03:23;;;;;;;9.68;3.63;;;;;;;30.26;42.66;97685.13;5047158;28;20207;-62
2023/07/26 00:05:50;;;;;;;5.75;3.20;;;;;;;30.19;42.80;97685.38;5047155;28;20211;-62
2023/07/26 00:08:18;;;;;;;5.90;3.55;;;;;;;30.04;43.47;97679.41;5047003;28;20231;-62
2023/07/26 00:10:46;;;;;;;7.47;3.67;;;;;;;29.97;43.93;97664.69;5046947;28;20215;-62
2023/07/26 00:13:13;;;;;;;5.22;3.00;;;;;;;29.97;44.18;97675.22;5047363;28;20281;-62
2023/07/26 00:15:40;;;;;;;7.10;3.28;;;;;;;29.93;44.24;97671.56;5046873;28;20210;-62
2023/07/26 00:18:08;;;;;;;5.95;3.17;;;;;;;29.98;43.28;97674.16;5046840;28;20523;-62
2023/07/26 00:20:34;;;;;;;6.07;3.30;;;;;;;30.06;43.22;97674.66;5046847;28;20204;-62
2023/07/26 00:23:02;;;;;;;6.72;3.40;;;;;;;30.00;43.64;97663.34;5046962;28;20211;-62
2023/07/26 00:25:30;;;;;;;6.78;3.40;;;;;;;30.01;43.47;97663.06;5046715;28;20256;-62
2023/07/26 00:27:57;;;;;;;9.68;3.05;;;;;;;29.98;43.29;97657.56;5047052;28;20243;-62
2023/07/26 00:30:24;;;;;;;6.43;3.22;;;;;;;30.04;42.29;97663.59;5046811;28;20223;-62
2023/07/26 00:32:51;;;;;;;4.47;2.92;;;;;;;30.04;42.63;97666.22;5046925;27;20200;-62
2023/07/26 00:35:21;;;;;;;8.55;3.67;;;;;;;30.04;42.61;97660.94;5046887;28;20207;-62
2023/07/26 00:37:48;;;;;;;8.20;3.38;;;;;;;30.12;42.57;97663.03;5046654;28;20196;-62
2023/07/26 00:40:14;;;;;;;6.05;3.28;;;;;;;30.11;41.83;97658.81;5046691;28;20200;-62
2023/07/26 00:42:43;;;;;;;5.93;2.80;;;;;;;30.13;42.14;97654.03;5046521;28;20200;-62
2023/07/26 00:45:10;;;;;;;6.85;3.10;;;;;;;30.19;41.45;97655.59;5046526;28;20281;-62
2023/07/26 00:47:37;;;;;;;7.15;3.35;;;;;;;30.26;41.19;97648.19;5046338;28;20231;-62
2023/07/26 00:50:05;;;;;;;6.15;3.03;;;;;;;30.31;41.36;97650.81;5046361;28;20210;-63
2023/07/26 00:52:32;;;;;;;6.15;3.30;;;;;;;30.36;40.79;97647.34;5046483;28;20203;-62
2023/07/26 00:55:02;;;;;;;5.25;3.33;;;;;;;30.39;41.41;97652.84;5046351;28;20202;-62
2023/07/26 00:57:30;;;;;;;8.80;3.13;;;;;;;30.41;41.09;97649.94;5046202;28;20235;-62
2023/07/26 00:59:58;;;;;;;8.52;3.60;;;;;;;30.41;41.52;97647.31;5046258;28;20251;-62
2023/07/26 01:02:25;;;;;;;7.82;2.90;;;;;;;30.43;40.50;97651.25;5046097;28;20211;-62
2023/07/26 01:04:52;;;;;;;5.88;3.28;;;;;;;30.42;41.24;97651.50;5046325;28;20199;-62
2023/07/26 01:07:27;;;;;;;8.20;2.97;;;;;;;30.49;41.41;97656.50;5046013;28;20231;-62
2023/07/26 01:10:02;;;;;;;7.00;2.80;;;;;;;30.45;40.76;97654.38;5046048;28;20587;-62
2023/07/26 01:12:35;;;;;;;5.15;3.22;;;;;;;30.44;41.00;97660.72;5046152;27;20521;-62
2023/07/26 01:15:08;;;;;;;7.45;3.08;;;;;;;30.44;41.16;97666.00;5045976;28;20192;-62
2023/07/26 01:17:34;;;;;;;6.70;3.80;;;;;;;30.50;40.89;97664.13;5045960;28;20684;-62
2023/07/26 01:20:01;;;;;;;7.80;3.55;;;;;;;30.45;41.06;97666.78;5046188;28;20614;-62
2023/07/26 01:22:29;;;;;;;11.30;3.88;;;;;;;30.35;42.57;97665.00;5046198;28;20235;-62
2023/07/26 01:24:56;;;;;;;6.43;3.58;;;;;;;30.23;42.86;97669.84;5045728;28;20668;-63
2023/07/26 01:27:23;;;;;;;7.07;3.28;;;;;;;30.25;43.14;97672.19;5045648;28;20239;-62
2023/07/26 01:29:54;;;;;;;4.80;3.00;;;;;;;30.22;43.47;97670.88;5045834;28;20206;-62
2023/07/26 01:32:23;;;;;;;6.18;2.72;;;;;;;30.09;43.55;97674.09;5045712;28;20680;-63
2023/07/26 01:34:50;;;;;;;7.40;3.15;;;;;;;29.97;43.48;97675.22;5045315;28;20200;-62
2023/07/26 01:37:19;;;;;;;5.03;3.13;;;;;;;29.97;45.06;97675.22;5045667;28;20195;-62
2023/07/26 01:39:49;;;;;;;8.18;3.15;;;;;;;29.86;45.20;97675.53;5045867;28;20211;-62
2023/07/26 01:42:16;;;;;;;7.72;3.38;;;;;;;29.77;45.07;97675.31;5045936;28;20204;-62
2023/07/26 01:44:43;;;;;;;8.40;3.60;;;;;;;29.72;45.36;97673.47;5045654;28;20219;-62
2023/07/26 01:47:10;;;;;;;5.20;2.78;;;;;;;29.66;46.46;97676.41;5045927;27;20231;-62
2023/07/26 01:49:36;;;;;;;7.72;3.40;;;;;;;29.56;46.06;97674.56;5045318;28;20207;-62
2023/07/26 01:52:04;;;;;;;6.20;2.80;;;;;;;29.48;45.79;97675.91;5045424;28;20202;-62
2023/07/26 01:54:30;;;;;;;7.45;3.17;;;;;;;29.38;46.89;97670.69;5045335;28;20620;-62
2023/07/26 01:56:58;;;;;;;5.95;3.08;;;;;;;29.32;46.23;97667.28;5045245;28;20612;-62
2023/07/26 01:59:25;;;;;;;5.07;3.10;;;;;;;29.28;46.53;97665.44;5045194;28;20472;-62
2023/07/26 02:01:52;;;;;;;6.32;2.97;;;;;;;29.24;46.75;97669.66;5045516;28;20680;-62
2023/07/26 02:04:19;;;;;;;7.18;3.25;;;;;;;29.20;47.42;97663.34;5045244;28;20196;-62
2023/07/26 02:06:46;;;;;;;6.68;3.17;;;;;;;29.12;46.99;97662.06;5045116;28;20735;-62
2023/07/26 02:09:13;;;;;;;9.27;3.65;;;;;;;29.07;47.52;97667.31;5045349;28;20235;-62
2023/07/26 02:11:39;;;;;;;6.38;3.05;;;;;;;29.06;47.46;97663.91;5045179;28;20211;-62
2023/07/26 02:14:07;;;;;;;6.45;3.20;;;;;;;29.01;48.39;97671.75;5045096;28;20199;-62
2023/07/26 02:16:34;;;;;;;7.13;3.33;;;;;;;28.98;48.19;97672.28;5045260;28;20200;-62
2023/07/26 02:19:01;;;;;;;5.03;3.10;;;;;;;28.97;48.18;97675.19;5045344;28;20463;-62
2023/07/26 02:21:28;;;;;;;7.95;3.10;;;;;;;28.85;47.92;97667.56;5045026;28;20208;-62
2023/07/26 02:23:54;;;;;;;6.50;3.08;;;;;;;28.83;48.36;97680.22;5045498;28;20204;-62
2023/07/26 02:26:21;;;;;;;6.60;3.15;;;;;;;28.74;48.39;97681.75;5044925;27;20215;-62
2023/07/26 02:28:48;;;;;;;7.50;2.95;;;;;;;28.70;48.70;97680.72;5045214;28;20241;-62
2023/07/26 02:31:16;;;;;;;7.00;3.08;;;;;;;28.73;48.25;97685.44;5045147;28;20210;-62
2023/07/26 02:33:43;;;;;;;6.50;3.28;;;;;;;28.74;49.05;97682.56;5044613;28;20203;-62
2023/07/26 02:36:10;;;;;;;5.38;3.13;;;;;;;28.76;49.02;97692.81;5045136;28;20577;-62
2023/07/26 02:38:36;;;;;;;5.55;3.15;;;;;;;28.67;48.90;97688.06;5044736;28;20687;-62
2023/07/26 02:41:03;;;;;;;5.18;2.95;;;;;;;28.59;49.83;97685.97;5044834;28;20207;-62
2023/07/26 02:43:30;;;;;;;5.68;2.85;;;;;;;28.54;49.99;97687.81;5044746;28;20685;-62
2023/07/26 02:45:57;;;;;;;4.15;2.97;;;;;;;28.47;49.97;97682.78;5044816;28;20208;-62
2023/07/26 02:48:25;;;;;;;6.57;3.15;;;;;;;28.50;50.43;97679.63;5048016;28;20719;-62
2023/07/26 02:50:51;;;;;;;7.22;3.40;;;;;;;28.48;50.59;97683.59;5048327;28;20227;-62
2023/07/26 02:53:18;;;;;;;7.78;3.63;;;;;;;28.44;50.66;97683.31;5048493;28;20195;-62
2023/07/26 02:55:45;;;;;;;5.32;3.25;;;;;;;28.37;50.36;97667.00;5048055;28;20196;-62
2023/07/26 02:58:12;;;;;;;7.60;3.47;;;;;;;28.39;49.80;97675.38;5048059;28;20199;-62
2023/07/26 03:00:38;;;;;;;8.20;3.10;;;;;;;28.44;50.30;97667.53;5047854;28;20199;-62
2023/07/26 03:03:05;;;;;;;8.90;3.90;;;;;;;28.42;49.94;97680.97;5048137;28;20230;-62
2023/07/26 03:05:36;;;;;;;6.00;3.40;;;;;;;28.45;51.21;97674.41;5047839;28;20203;-62
2023/07/26 03:08:03;;;;;;;8.18;3.17;;;;;;;28.45;50.42;97679.66;5047959;28;20238;-62
2023/07/26 03:10:30;;;;;;;7.97;3.20;;;;;;;28.43;50.54;97687.00;5047746;28;20284;-62
2023/07/26 03:12:57;;;;;;;8.13;3.50;;;;;;;28.46;50.18;97675.97;5047827;28;20196;-63
2023/07/26 03:15:23;;;;;;;4.95;2.78;;;;;;;28.31;50.50;97683.81;5047544;28;20230;-62
2023/07/26 03:17:50;;;;;;;7.57;3.30;;;;;;;28.35;51.17;97672.50;5047865;28;20191;-62
2023/07/26 03:20:17;;;;;;;9.32;3.70;;;;;;;28.36;51.67;97675.91;5047844;28;20192;-62
2023/07/26 03:22:45;;;;;;;6.63;3.33;;;;;;;28.37;52.28;97688.03;5047874;28;20208;-62
2023/07/26 03:25:12;;;;;;;5.03;3.10;;;;;;;28.33;51.44;97685.13;5047661;28;20222;-62
2023/07/26 03:27:39;;;;;;;6.15;3.03;;;;;;;28.40;52.44;97684.88;5047632;28;20359;-62
2023/07/26 03:30:07;;;;;;;8.55;3.15;;;;;;;28.45;52.20;97682.28;5047850;28;20207;-63
2023/07/26 03:32:33;;;;;;;7.65;3.72;;;;;;;28.44;52.56;97686.72;5047628;28;20669;-62
2023/07/26 03:35:00;;;;;;;7.15;3.50;;;;;;;28.47;52.25;97689.91;5047502;28;20694;-62
2023/07/26 03:37:28;;;;;;;6.25;3.05;;;;;;;28.48;52.06;97689.66;5047365;28;20635;-62
2023/07/26 03:39:56;;;;;;;5.97;3.13;;;;;;;28.51;52.37;97699.66;5047612;28;20200;-62
2023/07/26 03:42:23;;;;;;;6.30;3.42;;;;;;;28.48;52.61;97694.91;5047356;28;20208;-62
2023/07/26 03:44:50;;;;;;;8.93;3.25;;;;;;;28.45;52.66;97690.19;5047656;28;20424;-63
2023/07/26 03:47:17;;;;;;;6.22;3.53;;;;;;;28.46;53.76;97691.75;5047266;28;20207;-62
2023/07/26 03:49:43;;;;;;;6.38;3.10;;;;;;;28.42;54.19;97691.47;5047649;28;20200;-62
2023/07/26 03:52:10;;;;;;;6.47;3.53;;;;;;;28.37;52.98;97688.03;5047350;28;20218;-62
2023/07/26 03:54:37;;;;;;;5.45;3.13;;;;;;;28.48;54.19;97692.28;5047114;28;20708;-62
2023/07/26 03:57:07;;;;;;;6.78;2.85;;;;;;;28.48;53.61;97694.91;5046857;28;20684;-62
2023/07/26 03:59:34;;;;;;;6.45;3.05;;;;;;;28.50;54.83;97698.03;5047209;28;20294;-62
2023/07/26 04:02:01;;;;;;;6.22;3.38;;;;;;;28.43;55.66;97698.31;5047473;28;20211;-62
2023/07/26 04:04:28;;;;;;;7.50;3.00;;;;;;;28.36;54.11;97696.94;5047121;28;20236;-62
2023/07/26 04:06:54;;;;;;;7.10;3.58;;;;;;;28.45;56.00;97700.69;5047014;28;20206;-62
2023/07/26 04:09:21;;;;;;;10.27;3.40;;;;;;;28.51;56.20;97706.72;5046899;28;20234;-62
2023/07/26 04:11:48;;;;;;;6.85;3.58;;;;;;;28.52;56.54;97700.44;5046991;28;20232;-62
2023/07/26 04:14:16;;;;;;;9.95;3.65;;;;;;;28.55;55.68;97710.44;5046864;28;20199;-63
2023/07/26 04:16:43;;;;;;;8.77;3.50;;;;;;;28.49;54.66;97714.88;5047374;28;20215;-62
2023/07/26 04:19:09;;;;;;;10.07;3.80;;;;;;;28.58;56.22;97705.44;5046951;28;20726;-62
2023/07/26 04:21:36;;;;;;;7.78;3.80;;;;;;;28.59;55.76;97712.25;5046867;28;20614;-62
2023/07/26 04:24:03;;;;;;;8.05;3.55;;;;;;;28.63;57.04;97713.34;5046810;28;20676;-62
2023/07/26 04:26:30;;;;;;;5.25;3.47;;;;;;;28.62;56.91;97709.13;5046787;28;20203;-62
2023/07/26 04:28:56;;;;;;;6.65;3.60;;;;;;;28.57;58.76;97703.84;5046645;28;20239;-63
2023/07/26 04:31:25;;;;;;;5.00;3.30;;;;;;;28.58;59.53;97708.06;5046671;28;20200;-62
2023/07/26 04:33:51;;;;;;;6.47;3.30;;;;;;;28.54;59.27;97704.38;5046481;28;20206;-63
2023/07/26 04:36:18;;;;;;;4.70;3.42;;;;;;;28.59;59.18;97706.22;5046646;28;20207;-62
2023/07/26 04:38:45;;;;;;;7.55;3.67;;;;;;;28.59;60.63;97712.25;5046611;28;20590;-63
2023/07/26 04:41:13;;;;;;;7.05;3.38;;;;;;;28.58;59.88;97715.94;5046638;28;20210;-63
2023/07/26 04:43:39;;;;;;;8.57;3.78;;;;;;;28.60;61.37;97723.59;5046708;28;20246;-63
2023/07/26 04:46:06;;;;;;;8.43;3.50;;;;;;;28.63;61.79;97723.84;5046413;28;20211;-62
2023/07/26 04:48:34;;;;;;;8.18;3.70;;;;;;;28.66;61.45;97728.59;5046370;28;20227;-62
2023/07/26 04:51:01;;;;;;;7.78;3.80;;;;;;;28.73;61.50;97733.59;5046441;28;20204;-62
2023/07/26 04:53:28;;;;;;;11.52;3.53;;;;;;;28.80;59.92;97741.25;5046173;28;20673;-62
2023/07/26 04:55:56;;;;;;;5.70;3.22;;;;;;;28.89;59.02;97753.59;5046290;27;20672;-62
2023/07/26 04:58:23;;;;;;;6.50;3.42;;;;;;;29.01;57.68;97742.03;5046171;28;20206;-62
2023/07/26 05:00:50;;;;;;;4.57;2.97;;;;;;;29.11;60.43;97737.56;5046280;28;20211;-62
2023/07/26 05:03:17;;;;;;;5.72;3.33;;;;;;;29.27;62.46;97738.34;5046235;28;20231;-62
2023/07/26 05:05:49;;;;;;;10.88;3.72;;;;;;;29.34;58.18;97738.06;5046144;28;20226;-62
2023/07/26 05:08:16;;;;;;;6.88;3.67;;;;;;;29.42;63.01;97745.44;5045987;28;20490;-62
2023/07/26 05:10:43;;;;;;;12.15;3.55;;;;;;;29.45;62.85;97734.38;5045828;28;20599;-62
2023/07/26 05:13:10;;;;;;;8.25;3.60;;;;;;;29.36;59.70;97730.72;5045550;28;20412;-62
2023/07/26 05:15:37;;;;;;;6.25;3.47;;;;;;;29.29;61.00;97740.72;5044738;28;20635;-62
2023/07/26 05:18:04;;;;;;;7.28;3.50;;;;;;;29.43;64.95;97741.75;5045889;28;20628;-62
2023/07/26 05:20:30;;;;;;;11.27;4.00;;;;;;;29.49;64.33;97730.13;5046003;28;20597;-63
2023/07/26 05:22:59;;;;;;;7.60;3.80;;;;;;;29.55;64.65;97734.38;5046010;28;20222;-63
2023/07/26 05:25:25;;;;;;;9.40;3.85;;;;;;;29.72;68.00;97733.28;5046197;28;20215;-63
2023/07/26 05:27:54;;;;;;;8.00;3.63;;;;;;;29.83;59.90;97734.06;5045983;28;20199;-63
2023/07/26 05:30:21;;;;;;;6.57;3.42;;;;;;;29.88;62.61;97742.72;5045717;28;20256;-63
2023/07/26 05:32:48;;;;;;;8.02;3.47;;;;;;;30.07;61.09;97734.22;5045894;28;20215;-63
2023/07/26 05:35:15;;;;;;;6.43;4.05;;;;;;;30.10;55.60;97734.44;5045838;28;20211;-63
2023/07/26 05:37:42;;;;;;;9.48;3.60;;;;;;;30.35;64.84;97735.44;5045541;28;20638;-63
2023/07/26 05:40:11;;;;;;;10.60;4.78;;;;;;;30.59;62.91;97740.81;5045526;28;20203;-63
2023/07/26 05:42:38;;;;;;;14.30;4.90;;;;;;;30.83;62.60;97731.16;5045872;28;20215;-63
2023/07/26 05:45:05;;;;;;;10.13;4.85;;;;;;;31.05;64.01;97732.59;5045649;28;20203;-63
2023/07/26 05:47:33;;;;;;;8.13;4.30;;;;;;;31.25;60.92;97742.97;5045635;28;20725;-63
2023/07/26 05:49:59;;;;;;;8.60;3.47;;;;;;;31.49;62.53;97747.53;5045783;28;20322;-63
2023/07/26 05:52:26;;;;;;;6.75;3.85;;;;;;;31.62;52.16;97746.06;5045419;28;20723;-63
2023/07/26 05:54:53;;;;;;;7.90;3.88;;;;;;;31.82;55.52;97745.84;5045763;28;20200;-63
2023/07/26 05:57:21;;;;;;;10.13;3.95;;;;;;;31.94;53.23;97748.13;5045272;28;20238;-63
2023/07/26 05:59:48;;;;;;;9.45;3.80;;;;;;;32.15;52.98;97738.88;5045292;28;20211;-63
2023/07/26 06:02:15;;;;;;;11.23;4.28;;;;;;;32.32;49.97;97740.22;5045546;28;20210;-63
2023/07/26 06:04:41;;;;;;;8.20;4.20;;;;;;;32.48;47.08;97744.28;5045242;28;20211;-63
2023/07/26 06:07:08;;;;;;;10.88;3.97;;;;;;;32.67;47.79;97746.94;5045305;28;20199;-64
2023/07/26 06:09:36;;;;;;;7.40;3.95;;;;;;;32.84;48.24;97754.31;5045268;28;20235;-63
2023/07/26 06:12:03;;;;;;;5.85;3.75;;;;;;;32.89;48.69;97752.38;5045611;28;20200;-63
2023/07/26 06:14:32;;;;;;;12.00;3.67;;;;;;;33.16;50.09;97750.91;5045096;28;20206;-63
2023/07/26 06:16:59;;;;;;;6.45;3.53;;;;;;;33.36;49.16;97760.38;5045203;28;20205;-61
2023/07/26 06:19:26;;;;;;;6.93;3.63;;;;;;;33.45;46.76;97749.91;5044948;28;20686;-63
2023/07/26 06:21:55;;;;;;;4.78;3.55;;;;;;;33.63;47.92;97748.25;5045308;28;20662;-63
2023/07/26 06:24:22;;;;;;;9.40;3.90;;;;;;;33.70;46.55;97748.69;5045061;28;20214;-63
2023/07/26 06:26:49;;;;;;;6.85;3.67;;;;;;;33.89;48.46;97756.50;5045175;28;20607;-63
2023/07/26 06:29:16;;;;;;;12.63;4.07;;;;;;;33.92;43.59;97756.72;5045044;28;20242;-61
2023/07/26 06:31:44;;;;;;;9.15;4.10;;;;;;;34.05;44.40;97755.16;5044858;28;20211;-61
2023/07/26 06:34:10;;;;;;;9.30;3.70;;;;;;;34.16;45.86;97745.13;5044724;28;20203;-61
2023/07/26 06:36:37;;;;;;;5.82;3.65;;;;;;;34.22;41.60;97743.94;5045302;28;20230;-61
2023/07/26 06:39:05;;;;;;;10.82;4.00;;;;;;;34.46;42.73;97749.75;5045125;28;20207;-61
2023/07/26 06:41:32;;;;;;;7.18;3.70;;;;;;;34.56;40.67;97745.34;5044809;28;20203;-61
2023/07/26 06:43:59;;;;;;;10.23;4.50;;;;;;;34.79;40.57;97748.78;5044892;28;20486;-61
2023/07/26 06:46:26;;;;;;;10.23;4.00;;;;;;;34.96;40.50;97750.78;5044655;28;20202;-62
2023/07/26 06:48:54;;;;;;;11.60;4.20;;;;;;;35.11;44.40;97742.44;5044931;28;20227;-61
2023/07/26 06:51:20;;;;;;;11.10;6.32;;;;;;;35.23;42.70;97752.50;5044671;28;20214;-64
2023/07/26 06:53:47;;;;;;;10.00;5.35;;;;;;;35.35;41.88;97750.88;5044653;28;20672;-62
2023/07/26 06:56:14;;;;;;;14.30;8.75;;;;;;;35.50;41.22;97757.66;5044691;28;20203;-61
2023/07/26 06:58:41;;;;;;;8.38;4.65;;;;;;;35.57;39.36;97749.25;5045066;28;20203;-61
2023/07/26 07:01:17;;;;;;;8.32;4.20;;;;;;;35.55;36.51;97754.91;5044673;28;20789;-63
2023/07/26 07:03:43;;;;;;;12.00;6.63;;;;;;;35.80;41.67;97756.06;5044869;28;20487;-60
2023/07/26 07:06:12;;;;;;;8.32;4.40;;;;;;;35.88;41.91;97762.50;5044564;28;20217;-59
2023/07/26 07:08:38;;;;;;;9.32;4.20;;;;;;;35.71;40.75;97760.59;5044366;28;20722;-59
2023/07/26 07:11:05;;;;;;;10.95;5.13;;;;;;;35.77;40.05;97759.34;5044598;28;20199;-61
2023/07/26 07:13:34;;;;;;;8.35;3.90;;;;;;;35.71;38.92;97765.13;5044559;28;20202;-60
2023/07/26 07:16:01;;;;;;;8.10;4.20;;;;;;;35.77;39.38;97762.00;5044819;28;20238;-59
2023/07/26 07:18:28;;;;;;;8.18;3.88;;;;;;;35.96;44.08;97760.97;5044255;28;20712;-59
2023/07/26 07:20:57;;;;;;;11.25;3.67;;;;;;;36.03;40.36;97761.28;5044367;28;20708;-62
2023/07/26 07:23:26;;;;;;;9.63;4.15;;;;;;;36.21;41.90;97760.25;5044120;28;20203;-61
2023/07/26 07:25:53;;;;;;;11.68;4.53;;;;;;;36.14;38.83;97751.97;5044309;28;20219;-61
2023/07/26 07:28:19;;;;;;;6.05;3.97;;;;;;;36.35;40.87;97769.97;5044420;28;20207;-58
2023/07/26 07:30:46;;;;;;;6.43;4.07;;;;;;;36.52;38.49;97767.34;5044126;28;20270;-59
2023/07/26 07:33:13;;;;;;;6.43;4.15;;;;;;;36.71;40.54;97754.50;5046118;28;20687;-59
2023/07/26 07:35:40;;;;;;;11.55;4.20;;;;;;;36.94;39.49;97763.09;5047547;28;20611;-60
2023/07/26 07:38:07;;;;;;;8.27;5.30;;;;;;;37.00;40.05;97763.72;5047705;28;20200;-60
2023/07/26 07:40:35;;;;;;;243.52;116.30;;;;;;;37.10;38.36;97759.97;5047614;28;20206;-60
2023/07/26 07:43:02;;;;;;;15.63;6.20;;;;;;;37.13;37.84;97765.44;5047477;28;20202;-61
2023/07/26 07:45:30;;;;;;;11.02;4.50;;;;;;;37.24;41.23;97765.09;5047324;27;20656;-60
2023/07/26 07:47:56;;;;;;;9.40;4.35;;;;;;;37.35;40.82;97755.63;5047236;28;20196;-60
2023/07/26 07:50:23;;;;;;;5.97;3.92;;;;;;;37.49;35.49;97758.91;5047169;28;20849;-60
2023/07/26 07:52:50;;;;;;;7.28;3.65;;;;;;;37.48;37.22;97759.25;5047351;28;20206;-61
2023/07/26 07:55:17;;;;;;;11.00;4.65;;;;;;;37.66;38.56;97758.06;5047176;28;20741;-59
2023/07/26 07:57:45;;;;;;;8.32;4.50;;;;;;;37.67;35.25;97759.63;5047177;28;20207;-59
2023/07/26 08:00:13;;;;;;;7.85;4.30;;;;;;;37.77;36.22;97758.47;5047261;28;20289;-60
2023/07/26 08:02:40;;;;;;;9.13;4.78;;;;;;;37.81;38.55;97767.41;5047475;28;20216;-60
2023/07/26 08:05:07;;;;;;;7.93;4.68;;;;;;;37.74;35.47;97762.56;5047307;28;20199;-62
2023/07/26 08:07:33;;;;;;;12.18;4.43;;;;;;;37.83;34.71;97759.88;5047042;28;20222;-63
2023/07/26 08:10:00;;;;;;;8.32;4.40;;;;;;;37.99;34.92;97762.78;5047070;28;20239;-59
2023/07/26 08:12:27;;;;;;;7.15;4.13;;;;;;;38.36;37.71;97763.78;5046947;28;20200;-61
2023/07/26 08:14:55;;;;;;;9.13;4.60;;;;;;;38.57;34.36;97761.13;5046770;28;20681;-61
2023/07/26 08:17:22;;;;;;;7.53;4.40;;;;;;;38.70;34.64;97761.97;5046704;28;20203;-63
2023/07/26 08:19:49;;;;;;;8.05;4.80;;;;;;;38.66;32.40;97753.84;5046944;28;20611;-61
2023/07/26 08:22:15;;;;;;;10.57;5.25;;;;;;;38.63;33.84;97748.34;5045919;28;20206;-62
2023/07/26 08:24:42;;;;;;;10.98;4.93;;;;;;;38.80;35.63;97748.19;5045750;28;20207;-62
2023/07/26 08:27:09;;;;;;;10.35;5.18;;;;;;;39.06;34.44;97747.94;5046776;28;20212;-62
2023/07/26 08:29:36;;;;;;;10.00;5.10;;;;;;;39.24;34.65;97745.88;5046703;28;20237;-62
2023/07/26 08:32:04;;;;;;;9.30;5.15;;;;;;;39.25;32.06;97746.66;5046817;28;20199;-62
2023/07/26 08:34:31;;;;;;;12.55;5.13;;;;;;;39.36;30.41;97743.25;5046625;28;20210;-62
2023/07/26 08:36:58;;;;;;;10.55;4.57;;;;;;;39.47;31.21;97734.78;5046616;28;20628;-62
2023/07/26 08:39:25;;;;;;;9.10;5.65;;;;;;;39.48;29.91;97723.75;5046494;28;20278;-62
2023/07/26 08:41:51;;;;;;;10.68;4.95;;;;;;;39.59;30.03;97718.72;5046606;28;20691;-62
2023/07/26 08:44:19;;;;;;;10.30;5.07;;;;;;;39.79;29.05;97733.88;5045289;28;20427;-62
2023/07/26 08:46:48;;;;;;;9.43;4.78;;;;;;;39.94;28.17;97718.25;5046645;28;20202;-62
2023/07/26 08:49:17;;;;;;;15.23;4.80;;;;;;;39.73;25.81;97721.81;5046413;28;20326;-63
2023/07/26 08:51:44;;;;;;;13.15;4.60;;;;;;;39.80;24.66;97730.13;5046321;28;20226;-62
2023/07/26 08:54:11;;;;;;;9.35;4.78;;;;;;;40.07;24.39;97711.78;5046477;28;20233;-62
2023/07/26 08:56:38;;;;;;;12.50;5.10;;;;;;;40.21;27.66;97728.28;5046569;28;20208;-62
2023/07/26 08:59:05;;;;;;;11.52;5.22;;;;;;;40.35;30.15;97721.75;5046569;28;20195;-62
2023/07/26 09:01:32;;;;;;;10.57;5.10;;;;;;;40.63;27.65;97717.19;5046643;28;20217;-62
2023/07/26 09:03:59;;;;;;;12.35;4.95;;;;;;;40.67;29.38;97711.91;5046366;28;20209;-62
2023/07/26 09:06:28;;;;;;;10.82;4.72;;;;;;;40.74;28.61;97720.16;5046125;28;20222;-62
2023/07/26 09:08:55;;;;;;;11.13;4.80;;;;;;;40.69;26.90;97721.16;5046256;28;20226;-62
2023/07/26 09:11:24;;;;;;;9.23;4.80;;;;;;;40.76;29.20;97720.59;5046184;28;20714;-62
2023/07/26 09:13:55;;;;;;;11.50;5.13;;;;;;;40.72;28.97;97722.41;5046137;28;20708;-62
2023/07/26 09:16:22;;;;;;;9.43;5.00;;;;;;;40.64;27.87;97713.41;5046096;28;20641;-63
2023/07/26 09:19:00;;;;;;;9.68;5.15;;;;;;;40.62;28.84;97715.63;5046300;28;20207;-62
2023/07/26 09:21:30;;;;;;;13.95;5.43;;;;;;;40.81;27.38;97717.66;5046105;28;20234;-62
2023/07/26 09:23:58;;;;;;;9.23;4.82;;;;;;;40.63;26.30;97722.53;5045893;28;20285;-62
2023/07/26 09:26:35;;;;;;;12.77;4.70;;;;;;;40.79;27.58;97724.50;5045787;28;20202;-62
2023/07/26 09:29:02;;;;;;;11.40;5.22;;;;;;;40.96;26.78;97724.19;5045875;28;20263;-62
2023/07/26 09:31:33;;;;;;;11.18;4.75;;;;;;;40.91;26.39;97729.78;5045818;28;20616;-62
2023/07/26 09:34:03;;;;;;;10.00;5.20;;;;;;;41.08;26.59;97721.44;5045796;28;20206;-62
2023/07/26 09:36:42;;;;;;;10.50;5.10;;;;;;;41.03;26.00;97702.88;5045611;28;20222;-62
2023/07/26 09:39:09;;;;;;;15.30;5.00;;;;;;;41.08;26.21;97710.72;5045604;28;20903;-62
2023/07/26 09:41:36;;;;;;;9.93;5.07;;;;;;;41.18;28.53;97710.19;5045622;28;20199;-62
2023/07/26 09:44:04;;;;;;;9.40;5.10;;;;;;;41.44;28.99;97705.41;5045624;28;20654;-62
2023/07/26 09:46:31;;;;;;;8.02;4.93;;;;;;;41.41;27.17;97706.88;5045526;28;20588;-62
2023/07/26 09:48:59;;;;;;;8.60;5.15;;;;;;;41.35;27.35;97698.31;5045764;28;20198;-62
2023/07/26 09:51:28;;;;;;;15.32;5.55;;;;;;;41.30;27.78;97698.56;5045706;28;20262;-65
2023/07/26 09:53:56;;;;;;;12.13;5.60;;;;;;;41.39;27.24;97701.06;5045478;28;20287;-63
2023/07/26 09:56:24;;;;;;;13.82;5.45;;;;;;;41.48;26.74;97696.31;5044936;28;20234;-62
2023/07/26 09:58:51;;;;;;;9.48;4.80;;;;;;;41.60;29.50;97700.81;5045454;28;20622;-62
2023/07/26 10:01:21;;;;;;;8.35;5.15;;;;;;;41.29;26.54;97709.66;5045282;28;20596;-62
2023/07/26 10:03:52;;;;;;;10.63;5.07;;;;;;;41.06;25.46;97706.81;5044531;28;20210;-62
2023/07/26 10:06:20;;;;;;;10.82;4.68;;;;;;;41.25;26.98;97698.06;5045272;28;20202;-62
2023/07/26 10:08:47;;;;;;;8.13;4.55;;;;;;;41.37;28.25;97696.06;5045319;28;20203;-62
2023/07/26 10:11:19;;;;;;;8.55;4.55;;;;;;;41.42;28.50;97702.28;5045212;28;20333;-62
2023/07/26 10:13:47;;;;;;;11.38;4.57;;;;;;;41.15;24.98;97700.16;5045810;28;20199;-62
2023/07/26 10:16:14;;;;;;;10.45;4.70;;;;;;;41.06;26.13;97706.81;5045118;28;20214;-62
2023/07/26 10:18:42;;;;;;;11.02;4.90;;;;;;;41.05;25.66;97705.25;5045264;28;20206;-62
2023/07/26 10:21:12;;;;;;;9.70;5.00;;;;;;;41.01;25.94;97707.81;5045115;28;20218;-63
2023/07/26 10:23:39;;;;;;;9.55;4.65;;;;;;;41.24;29.18;97708.00;5045441;28;20199;-62
2023/07/26 10:26:07;;;;;;;12.20;4.32;;;;;;;41.28;27.50;97708.09;5045166;28;20226;-62
2023/07/26 10:28:37;;;;;;;10.23;4.60;;;;;;;41.03;27.28;97702.88;5045190;28;20202;-62
2023/07/26 10:31:04;;;;;;;11.35;4.95;;;;;;;41.06;25.75;97704.13;5045134;28;20218;-62
2023/07/26 10:33:32;;;;;;;10.82;4.60;;;;;;;40.92;27.05;97696.47;5044854;28;20679;-62
2023/07/26 10:36:03;;;;;;;13.20;5.13;;;;;;;40.95;28.38;97699.25;5044981;28;20199;-62
2023/07/26 10:38:30;;;;;;;10.38;4.60;;;;;;;41.10;27.80;97687.00;5045085;28;20230;-62
2023/07/26 10:40:57;;;;;;;7.35;4.80;;;;;;;41.22;28.98;97690.72;5044774;28;20209;-62
2023/07/26 10:43:41;;;;;;;14.05;5.18;;;;;;;41.32;28.12;97682.16;5044828;28;20206;-62
2023/07/26 10:46:13;;;;;;;11.07;5.10;;;;;;;41.22;26.48;97693.41;5044807;28;20567;-62
2023/07/26 10:48:41;;;;;;;13.13;4.90;;;;;;;41.13;28.59;97680.94;5044778;28;20237;-62
2023/07/26 10:51:31;;;;;;;8.93;4.32;;;;;;;41.02;26.35;97679.91;5044605;28;20233;-62
2023/07/26 10:53:58;;;;;;;12.20;5.13;;;;;;;40.93;26.73;97676.59;5044862;28;20702;-63
2023/07/26 10:56:26;;;;;;;10.20;4.63;;;;;;;41.09;28.35;97677.41;5044709;28;20195;-62
2023/07/26 10:58:56;;;;;;;14.70;5.07;;;;;;;41.13;28.21;97670.22;5044562;28;20198;-62
2023/07/26 11:01:36;;;;;;;21.50;5.32;;;;;;;41.24;30.64;97669.69;5044728;28;20430;-63
2023/07/26 11:04:10;;;;;;;8.75;5.10;;;;;;;41.07;27.07;97671.59;5044762;28;20199;-62
2023/07/26 11:06:53;;;;;;;11.75;4.97;;;;;;;40.82;27.77;97670.19;5044414;28;20214;-62
2023/07/26 11:09:24;;;;;;;12.70;5.00;;;;;;;40.76;27.62;97680.41;5048094;28;20702;-62
2023/07/26 11:11:56;;;;;;;9.27;4.72;;;;;;;40.76;30.87;97675.03;5048040;28;20295;-63
2023/07/26 11:14:25;;;;;;;11.65;5.20;;;;;;;40.84;28.01;97673.28;5048071;28;20199;-62
2023/07/26 11:16:53;;;;;;;9.52;4.55;;;;;;;41.05;28.14;97673.88;5048088;28;20311;-62
2023/07/26 11:19:19;;;;;;;7.90;4.97;;;;;;;41.02;26.67;97663.81;5047955;28;20195;-62
2023/07/26 11:21:46;;;;;;;10.48;4.45;;;;;;;40.67;28.01;97663.69;5047972;28;20600;-63
2023/07/26 11:24:13;;;;;;;8.10;4.50;;;;;;;40.40;27.04;97671.38;5047909;28;20207;-62
2023/07/26 11:26:47;;;;;;;9.88;4.95;;;;;;;40.47;28.06;97662.78;5047750;27;20530;-62
2023/07/26 11:29:14;;;;;;;8.48;4.57;;;;;;;40.56;29.75;97676.78;5047602;28;20195;-62
2023/07/26 11:31:43;;;;;;;14.68;5.18;;;;;;;40.55;28.20;97667.19;5047682;28;20242;-62
2023/07/26 11:34:17;;;;;;;8.07;4.05;;;;;;;40.52;29.17;97657.16;5047657;28;20207;-62